This is the latest recevied weather packets stored in our database for station/object KS5S. If no packets are shown the sender has not sent any weather packets the latest 10 day(s).
| Time | Temp. | Humidity | Pressure | Rain* | Wind** | Luminosity | Snow |
|---|---|---|---|---|---|---|---|
| 1777572196 | 16.67° C | 96% | 1010.6 hPa | 0 mm | - | 202 W/m² | - |
| 1777571892 | 16.67° C | 96% | 1010.4 hPa | 0 mm | - | 194 W/m² | - |
| 1777571587 | 16.67° C | 96% | 1010.4 hPa | 0 mm | - | 170 W/m² | - |
| 1777571285 | 16.67° C | 96% | 1010.5 hPa | 0 mm | - | 194 W/m² | - |
| 1777570981 | 16.67° C | 96% | 1010.7 hPa | 0 mm | - | 130 W/m² | - |
| 1777570677 | 16.11° C | 96% | 1010.6 hPa | 0 mm | - | 184 W/m² | - |
| 1777570374 | 16.11° C | 96% | 1010 hPa | 0 mm | - | 242 W/m² | - |
| 1777570069 | 16.11° C | 96% | 1010.4 hPa | 0 mm | - | 207 W/m² | - |
| 1777569764 | 16.11° C | 96% | 1010.6 hPa | 0 mm | - | 194 W/m² | - |
| 1777569460 | 16.11° C | 96% | 1011 hPa | 0.51 mm | - | 199 W/m² | - |
| 1777569157 | 16.11° C | 96% | 1011.5 hPa | 0.51 mm | - | 191 W/m² | - |
| 1777568854 | 16.11° C | 96% | 1012.2 hPa | 0 mm | - | 179 W/m² | - |
| 1777568551 | 16.11° C | 96% | 1012.4 hPa | 0.51 mm | - | 178 W/m² | - |
| 1777568247 | 16.11° C | 96% | 1012.8 hPa | 0 mm | - | 120 W/m² | - |
| 1777567945 | 16.11° C | 96% | 1012.3 hPa | 1.27 mm | - | 116 W/m² | - |
| 1777567641 | 16.11° C | 96% | 1012.6 hPa | 2.29 mm | - | 134 W/m² | - |
| 1777567339 | 16.11° C | 96% | 1012.6 hPa | 3.56 mm | - | 137 W/m² | - |
| 1777567037 | 16.11° C | 96% | 1013.3 hPa | 4.83 mm | - | 80 W/m² | - |
| 1777566734 | 16.11° C | 96% | 1013.5 hPa | 3.05 mm | - | 68 W/m² | - |
| 1777566432 | 16.11° C | 96% | 1013.6 hPa | 1.27 mm | - | 57 W/m² | - |
| 1777566129 | 16.11° C | 96% | 1013.7 hPa | 0.51 mm | - | 50 W/m² | - |
| 1777565824 | 16.11° C | 96% | 1013.4 hPa | 0.51 mm | - | 71 W/m² | - |
| 1777565520 | 16.11° C | 96% | 1013.3 hPa | 1.27 mm | - | 108 W/m² | - |
| 1777565216 | 16.11° C | 96% | 1013.4 hPa | 1.27 mm | - | 126 W/m² | - |
| 1777564913 | 16.11° C | 96% | 1013.6 hPa | 0 mm | - | 126 W/m² | - |
* Rain latest hour (hover to see other rain measurements)
** Current wind speed in m/s (hover to see current wind gust speed)